Time;durP1;ratioP1;P1;durP2;ratioP2;P2;SDS_P1;SDS_P2;PMS_P1;PMS_P2;Temp;Humidity;BMP_temperature;BMP_pressure;BME280_temperature;BME280_humidity;BME280_pressure;Samples;Min_cycle;Max_cycle;Signal;HPM_P1;HPM_P2
2022/01/06 00:00:09;;;;;;;7.78;2.55;;;6.60;55.30;;;;;;5072171;28;20027;-70
2022/01/06 00:02:35;;;;;;;9.23;2.75;;;6.60;55.50;;;;;;5071629;28;20036;-68
2022/01/06 00:05:01;;;;;;;7.47;2.45;;;6.60;55.80;;;;;;5071341;28;20029;-69
2022/01/06 00:07:29;;;;;;;10.25;2.92;;;6.60;55.30;;;;;;5077298;28;20457;-71
2022/01/06 00:09:54;;;;;;;6.15;2.13;;;6.60;55.10;;;;;;5071460;28;20099;-70
2022/01/06 00:12:25;;;;;;;10.95;2.53;;;6.60;55.20;;;;;;5071846;28;20185;-70
2022/01/06 00:15:05;;;;;;;9.32;2.72;;;6.60;55.50;;;;;;5071386;28;20017;-72
2022/01/06 00:25:35;;;;;;;7.30;2.53;;;6.50;55.90;;;;;;5071447;28;20039;-69
2022/01/06 00:28:01;;;;;;;6.40;2.13;;;6.50;55.80;;;;;;5069050;28;20020;-71
2022/01/06 00:30:28;;;;;;;7.65;2.53;;;6.50;55.60;;;;;;5069646;28;20103;-70
2022/01/06 00:32:54;;;;;;;7.05;2.20;;;6.50;55.50;;;;;;5070735;28;20036;-70
2022/01/06 00:35:20;;;;;;;8.18;2.67;;;6.60;55.50;;;;;;5071447;28;20072;-69
2022/01/06 00:37:46;;;;;;;7.25;2.75;;;6.50;55.50;;;;;;5069233;28;20028;-69
2022/01/06 00:40:12;;;;;;;6.28;2.28;;;6.50;55.70;;;;;;5069762;28;20029;-70
2022/01/06 00:42:39;;;;;;;11.57;2.42;;;6.50;55.60;;;;;;5070308;28;20117;-69
2022/01/06 00:45:05;;;;;;;8.45;2.47;;;6.50;55.70;;;;;;5071834;28;20028;-71
2022/01/06 00:47:31;;;;;;;8.07;2.13;;;6.40;55.80;;;;;;5070457;28;20474;-72
2022/01/06 00:49:56;;;;;;;8.10;2.58;;;6.50;55.90;;;;;;5070796;28;20113;-70
2022/01/06 00:52:22;;;;;;;7.53;2.42;;;6.50;55.70;;;;;;5070767;28;20401;-71
2022/01/06 00:54:48;;;;;;;7.50;2.28;;;6.50;55.70;;;;;;5070429;28;20385;-71
2022/01/06 00:57:13;;;;;;;6.90;2.30;;;6.50;55.80;;;;;;5071240;28;20447;-71
2022/01/06 00:59:39;;;;;;;8.00;2.33;;;6.50;55.80;;;;;;5070592;28;20401;-69
2022/01/06 01:02:05;;;;;;;5.32;1.90;;;6.50;55.60;;;;;;5070057;28;20044;-70
2022/01/06 01:04:31;;;;;;;7.95;2.45;;;6.50;55.60;;;;;;5071434;28;20099;-71
2022/01/06 01:06:57;;;;;;;6.88;2.40;;;6.40;55.70;;;;;;5070830;28;20387;-70
2022/01/06 01:09:22;;;;;;;8.63;2.08;;;6.50;55.80;;;;;;5070505;28;20392;-70
2022/01/06 01:11:48;;;;;;;8.35;2.30;;;6.40;55.90;;;;;;5069012;28;20493;-71
2022/01/06 01:14:18;;;;;;;6.68;2.28;;;6.40;55.90;;;;;;5071015;28;20027;-70
2022/01/06 01:17:00;;;;;;;6.00;2.10;;;6.40;55.90;;;;;;5069566;28;20028;-69
2022/01/06 01:19:27;;;;;;;11.10;2.38;;;6.40;56.40;;;;;;5070606;28;20025;-70
2022/01/06 01:21:54;;;;;;;7.53;2.20;;;6.40;56.10;;;;;;5070069;28;20091;-71
2022/01/06 01:24:21;;;;;;;9.40;2.47;;;6.40;56.10;;;;;;5071008;28;20078;-70
2022/01/06 01:26:47;;;;;;;5.65;1.98;;;6.40;56.40;;;;;;5070655;28;20036;-70
2022/01/06 01:29:17;;;;;;;11.45;2.60;;;6.40;56.30;;;;;;5069525;28;20021;-71
2022/01/06 01:31:49;;;;;;;9.38;2.42;;;6.40;56.50;;;;;;5070567;28;20055;-69
2022/01/06 01:34:21;;;;;;;8.38;2.40;;;6.40;56.70;;;;;;5071237;28;20052;-71
2022/01/06 01:36:47;;;;;;;5.85;2.22;;;6.40;56.50;;;;;;5070238;28;20086;-70
2022/01/06 01:39:13;;;;;;;7.43;2.13;;;6.40;56.90;;;;;;5070913;28;20035;-71
2022/01/06 01:41:39;;;;;;;5.57;2.30;;;6.40;56.70;;;;;;5064856;28;20029;-69
2022/01/06 01:44:12;;;;;;;6.07;2.40;;;6.30;56.90;;;;;;5070491;28;20025;-70
2022/01/06 01:46:43;;;;;;;8.88;2.63;;;6.40;56.90;;;;;;5070490;28;20028;-69
2022/01/06 01:49:43;;;;;;;7.70;2.70;;;6.40;56.90;;;;;;5070643;28;20079;-70
2022/01/06 01:51:59;;;;;;;5.47;2.20;;;6.50;56.70;;;;;;5072091;28;20353;-70
2022/01/06 01:54:25;;;;;;;11.43;2.70;;;6.50;56.70;;;;;;5074662;28;20532;-69
2022/01/06 01:56:51;;;;;;;10.23;2.53;;;6.50;56.90;;;;;;5073740;28;20085;-70
2022/01/06 01:59:17;;;;;;;5.25;2.60;;;6.50;56.90;;;;;;5073133;28;20110;-70
2022/01/06 02:01:43;;;;;;;7.68;3.25;;;6.40;57.20;;;;;;5072846;28;20124;-67
2022/01/06 02:04:09;;;;;;;8.50;2.53;;;6.40;57.30;;;;;;5072384;28;20020;-70
2022/01/06 02:06:35;;;;;;;8.25;2.30;;;6.30;57.60;;;;;;5074586;28;20115;-70
2022/01/06 02:09:01;;;;;;;7.22;1.90;;;6.30;57.70;;;;;;5073524;28;20619;-70
2022/01/06 02:11:27;;;;;;;7.72;2.38;;;6.30;57.70;;;;;;5073271;28;20052;-69
2022/01/06 02:13:54;;;;;;;8.43;2.58;;;6.30;57.70;;;;;;5073456;28;20473;-69
2022/01/06 02:16:21;;;;;;;7.70;2.45;;;6.30;57.80;;;;;;5074520;28;20024;-70
2022/01/06 02:18:48;;;;;;;9.00;2.60;;;6.30;57.90;;;;;;5072198;28;20029;-71
2022/01/06 02:21:14;;;;;;;6.28;2.20;;;6.30;57.90;;;;;;5069272;28;20027;-71
2022/01/06 02:23:39;;;;;;;7.03;2.20;;;6.30;58.10;;;;;;5074201;28;20021;-71
2022/01/06 02:26:05;;;;;;;5.60;1.95;;;6.30;58.00;;;;;;5073451;28;20058;-70
2022/01/06 02:28:31;;;;;;;7.43;2.45;;;6.30;58.00;;;;;;5073720;28;20028;-69
2022/01/06 02:30:58;;;;;;;6.70;1.95;;;6.40;58.00;;;;;;5071382;28;20031;-71
2022/01/06 02:33:24;;;;;;;9.63;3.08;;;6.40;57.80;;;;;;5073272;28;20039;-70
2022/01/06 02:35:50;;;;;;;10.20;2.92;;;6.40;57.80;;;;;;5072860;28;20024;-70
2022/01/06 02:38:17;;;;;;;7.78;2.40;;;6.40;57.90;;;;;;5071952;28;20469;-69
2022/01/06 02:40:44;;;;;;;5.28;2.25;;;6.40;58.20;;;;;;5073810;28;20094;-68
2022/01/06 02:43:13;;;;;;;8.80;2.78;;;6.30;58.50;;;;;;5072642;28;20032;-69
2022/01/06 02:45:39;;;;;;;7.95;2.20;;;6.30;58.60;;;;;;5072316;28;20020;-69
2022/01/06 02:48:08;;;;;;;10.25;2.97;;;6.30;58.70;;;;;;5071117;28;20085;-69
2022/01/06 02:50:38;;;;;;;6.93;2.92;;;6.30;58.80;;;;;;5073932;28;20017;-69
2022/01/06 02:53:05;;;;;;;8.95;2.35;;;6.20;59.00;;;;;;5071505;28;20063;-69
2022/01/06 02:55:31;;;;;;;10.85;2.95;;;6.30;59.00;;;;;;5073192;28;20028;-69
2022/01/06 02:57:57;;;;;;;7.47;2.17;;;6.20;59.10;;;;;;5072510;28;20033;-69
2022/01/06 03:00:23;;;;;;;9.85;2.30;;;6.30;59.10;;;;;;5073221;28;20028;-69
2022/01/06 03:02:48;;;;;;;6.82;2.38;;;6.30;59.10;;;;;;5072314;28;20465;-69
2022/01/06 03:05:16;;;;;;;6.40;2.35;;;6.20;59.20;;;;;;5073507;28;20431;-70
2022/01/06 03:07:42;;;;;;;8.52;2.70;;;6.30;59.20;;;;;;5071981;28;20029;-70
2022/01/06 03:10:11;;;;;;;8.43;2.63;;;6.30;59.20;;;;;;5071527;28;20089;-70
2022/01/06 03:12:40;;;;;;;9.95;2.17;;;6.20;59.20;;;;;;5058989;28;20127;-71
2022/01/06 03:15:13;;;;;;;9.50;3.08;;;6.20;59.50;;;;;;5105342;28;20025;-69
2022/01/06 03:17:42;;;;;;;6.63;2.20;;;6.30;59.30;;;;;;5071785;28;20028;-69
2022/01/06 03:20:11;;;;;;;7.72;2.85;;;6.30;59.20;;;;;;5072748;28;20093;-70
2022/01/06 03:22:37;;;;;;;9.40;2.47;;;6.30;59.30;;;;;;5073380;28;20028;-71
2022/01/06 03:25:05;;;;;;;7.88;2.53;;;6.30;59.30;;;;;;5072573;28;20032;-70
2022/01/06 03:27:31;;;;;;;7.80;2.15;;;6.30;59.40;;;;;;5072790;28;20036;-70
2022/01/06 03:29:57;;;;;;;5.45;2.10;;;6.30;59.50;;;;;;5072736;28;20089;-71
2022/01/06 03:32:23;;;;;;;7.57;2.42;;;6.20;59.70;;;;;;5072771;28;20045;-70
2022/01/06 03:34:49;;;;;;;6.10;2.50;;;6.30;59.80;;;;;;5069771;28;20058;-68
2022/01/06 03:37:33;;;;;;;8.93;2.50;;;6.20;59.90;;;;;;5071671;28;20112;-70
2022/01/06 03:40:04;;;;;;;6.40;2.05;;;6.30;59.90;;;;;;5072570;28;20028;-68
2022/01/06 03:42:31;;;;;;;8.43;2.65;;;6.30;59.90;;;;;;5067446;28;20613;-70
2022/01/06 03:44:57;;;;;;;7.05;2.65;;;6.20;59.90;;;;;;5072080;28;20025;-69
2022/01/06 03:47:23;;;;;;;6.03;2.40;;;6.20;60.00;;;;;;5072511;28;20526;-71
2022/01/06 03:49:49;;;;;;;7.07;2.50;;;6.20;60.20;;;;;;5072283;28;20025;-68
2022/01/06 03:52:14;;;;;;;7.35;2.63;;;6.20;60.30;;;;;;5072060;28;20463;-69
2022/01/06 03:54:40;;;;;;;6.72;2.90;;;6.20;60.20;;;;;;5070770;28;20040;-70
2022/01/06 03:57:06;;;;;;;11.93;2.33;;;6.20;60.10;;;;;;5071148;28;20028;-69
2022/01/06 03:59:32;;;;;;;4.82;2.45;;;6.20;60.10;;;;;;5072584;28;20024;-72
2022/01/06 04:01:57;;;;;;;6.47;2.75;;;6.20;60.20;;;;;;5071127;28;20035;-71
2022/01/06 04:04:23;;;;;;;5.97;2.45;;;6.30;60.30;;;;;;5069291;28;20081;-69
2022/01/06 04:06:49;;;;;;;6.75;2.47;;;6.30;60.60;;;;;;5070934;28;20377;-68
2022/01/06 04:09:14;;;;;;;5.32;2.55;;;6.30;60.10;;;;;;5071806;28;20028;-68
2022/01/06 04:11:40;;;;;;;5.07;2.33;;;6.30;60.00;;;;;;5071977;28;20500;-70
2022/01/06 04:14:06;;;;;;;6.88;2.35;;;6.30;59.90;;;;;;5068547;28;20036;-69
2022/01/06 04:16:35;;;;;;;8.52;2.55;;;6.30;59.90;;;;;;5061849;28;20027;-71
2022/01/06 04:19:02;;;;;;;6.65;2.22;;;6.30;59.90;;;;;;5053499;28;20136;-69
2022/01/06 04:21:28;;;;;;;5.13;2.10;;;6.30;59.90;;;;;;5104714;28;20119;-70
2022/01/06 04:23:54;;;;;;;7.75;2.45;;;6.30;60.00;;;;;;5069776;28;20056;-69
2022/01/06 04:26:19;;;;;;;9.02;2.67;;;6.20;60.40;;;;;;5071884;28;20032;-70
2022/01/06 04:28:45;;;;;;;6.90;2.30;;;6.20;61.20;;;;;;5071342;28;20067;-70
2022/01/06 04:31:11;;;;;;;5.22;2.45;;;6.20;60.60;;;;;;5070743;28;20600;-70
2022/01/06 04:33:37;;;;;;;9.10;2.70;;;6.20;60.80;;;;;;5071105;28;20131;-70
2022/01/06 04:36:04;;;;;;;6.60;2.53;;;6.20;60.70;;;;;;5070903;28;20029;-70
2022/01/06 04:38:29;;;;;;;7.22;2.75;;;6.20;60.60;;;;;;5070456;28;20031;-70
2022/01/06 04:40:58;;;;;;;9.18;2.70;;;6.20;60.70;;;;;;5070969;28;20385;-69
2022/01/06 04:43:24;;;;;;;8.68;2.90;;;6.20;60.80;;;;;;5068640;28;20546;-70
2022/01/06 04:45:50;;;;;;;6.57;2.35;;;6.30;60.90;;;;;;5071383;28;20028;-70
2022/01/06 04:48:15;;;;;;;6.35;2.75;;;6.30;60.80;;;;;;5069475;28;20025;-70
2022/01/06 04:50:41;;;;;;;5.47;2.53;;;6.40;60.80;;;;;;5070097;28;20086;-71
2022/01/06 04:53:07;;;;;;;8.20;2.88;;;6.30;61.00;;;;;;5070492;28;20047;-70
2022/01/06 04:55:33;;;;;;;6.63;2.58;;;6.30;61.10;;;;;;5070521;28;20082;-70
2022/01/06 04:57:59;;;;;;;7.32;2.83;;;6.30;61.70;;;;;;5068599;28;20112;-70
2022/01/06 05:00:25;;;;;;;7.35;2.47;;;6.30;61.30;;;;;;5070356;28;20044;-70
2022/01/06 05:02:51;;;;;;;5.88;2.50;;;6.30;61.40;;;;;;5071125;28;20123;-69
2022/01/06 05:05:16;;;;;;;10.52;2.83;;;6.20;61.50;;;;;;5081925;28;20521;-69
2022/01/06 05:07:42;;;;;;;6.13;2.63;;;6.30;61.70;;;;;;5070867;28;20103;-70
2022/01/06 05:10:09;;;;;;;6.35;2.78;;;6.20;61.70;;;;;;5070790;28;20353;-69
2022/01/06 05:12:44;;;;;;;10.00;3.10;;;6.20;62.00;;;;;;5069975;28;20083;-70
2022/01/06 05:15:12;;;;;;;7.35;2.75;;;6.20;62.00;;;;;;5069011;28;20037;-69
2022/01/06 05:17:38;;;;;;;5.38;2.53;;;6.20;61.90;;;;;;5069902;28;20037;-70
2022/01/06 05:20:05;;;;;;;7.43;2.70;;;6.20;62.00;;;;;;5069910;28;20029;-69
2022/01/06 05:22:32;;;;;;;6.78;3.10;;;6.20;62.30;;;;;;5070791;28;20048;-69
2022/01/06 05:24:57;;;;;;;9.50;2.92;;;6.20;62.30;;;;;;5069685;28;20059;-68
2022/01/06 05:27:23;;;;;;;6.68;2.80;;;6.20;62.30;;;;;;5076621;28;20048;-70
2022/01/06 05:29:49;;;;;;;6.00;3.00;;;6.20;62.40;;;;;;5076076;28;20119;-71
2022/01/06 05:32:15;;;;;;;7.57;2.70;;;6.20;62.40;;;;;;5055635;28;20070;-70
2022/01/06 05:34:41;;;;;;;6.53;2.60;;;6.20;62.60;;;;;;5069470;28;20033;-70
2022/01/06 05:37:06;;;;;;;8.82;2.75;;;6.10;62.60;;;;;;5074642;28;20407;-70
2022/01/06 05:39:32;;;;;;;8.18;2.80;;;6.10;62.60;;;;;;5077554;28;20430;-69
2022/01/06 05:41:58;;;;;;;8.30;2.80;;;6.20;62.60;;;;;;5076318;28;20449;-68
2022/01/06 05:44:25;;;;;;;8.57;3.00;;;6.30;62.40;;;;;;5075843;28;20078;-70
2022/01/06 05:46:51;;;;;;;7.32;2.80;;;6.30;62.40;;;;;;5059513;28;20363;-70
2022/01/06 05:49:17;;;;;;;12.77;3.08;;;6.20;62.40;;;;;;5076514;28;20090;-71
2022/01/06 05:51:42;;;;;;;6.88;3.03;;;6.30;62.30;;;;;;5076852;28;20085;-71
2022/01/06 05:54:08;;;;;;;6.50;2.65;;;6.30;62.40;;;;;;5075391;28;20390;-70
2022/01/06 05:56:34;;;;;;;7.70;3.10;;;6.30;62.50;;;;;;5077245;28;20116;-71
2022/01/06 05:59:00;;;;;;;8.73;3.22;;;6.30;62.50;;;;;;5075077;28;20573;-68
2022/01/06 06:01:25;;;;;;;7.53;3.00;;;6.30;62.40;;;;;;5073115;28;20024;-71
2022/01/06 06:03:53;;;;;;;6.85;2.90;;;6.30;62.60;;;;;;5076649;28;20111;-71
2022/01/06 06:06:20;;;;;;;8.20;3.20;;;6.30;62.60;;;;;;5076267;28;20039;-70
2022/01/06 06:08:45;;;;;;;7.32;2.95;;;6.30;62.50;;;;;;5076155;28;20033;-71
2022/01/06 06:11:11;;;;;;;8.82;3.05;;;6.20;62.50;;;;;;5074623;28;20051;-70
2022/01/06 06:13:37;;;;;;;7.57;2.50;;;6.20;62.70;;;;;;5076300;28;20031;-70
2022/01/06 06:16:03;;;;;;;8.65;3.10;;;6.10;63.00;;;;;;5075687;28;20025;-69
2022/01/06 06:18:28;;;;;;;8.68;3.38;;;6.00;63.20;;;;;;5076981;28;20164;-71
2022/01/06 06:20:54;;;;;;;9.30;3.10;;;6.10;63.20;;;;;;5075592;28;20027;-71
2022/01/06 06:23:20;;;;;;;5.97;3.13;;;6.10;63.20;;;;;;5076435;28;20032;-70
2022/01/06 06:25:45;;;;;;;8.25;3.53;;;6.10;63.20;;;;;;5078020;28;20438;-70
2022/01/06 06:28:11;;;;;;;8.80;2.88;;;6.10;63.10;;;;;;5076019;28;20021;-71
2022/01/06 06:30:37;;;;;;;7.70;2.88;;;6.10;63.20;;;;;;5074806;28;20060;-71
2022/01/06 06:33:03;;;;;;;9.50;3.53;;;6.10;63.10;;;;;;5075606;28;20121;-69
2022/01/06 06:35:30;;;;;;;9.00;3.13;;;6.10;63.00;;;;;;5076289;28;20074;-70
2022/01/06 06:37:56;;;;;;;10.88;3.13;;;6.10;63.00;;;;;;5089954;28;20082;-70
2022/01/06 06:40:23;;;;;;;9.23;3.25;;;6.10;62.90;;;;;;5072449;28;20032;-70
2022/01/06 06:42:50;;;;;;;7.50;3.15;;;6.10;63.00;;;;;;5073300;28;20036;-70
2022/01/06 06:45:17;;;;;;;8.63;2.85;;;6.10;62.90;;;;;;5072032;28;20028;-72
2022/01/06 06:47:43;;;;;;;10.32;3.35;;;6.10;62.80;;;;;;5073625;28;20366;-70
2022/01/06 06:50:11;;;;;;;9.70;3.70;;;6.10;62.90;;;;;;5072553;28;20078;-70
2022/01/06 06:52:37;;;;;;;9.45;3.20;;;6.10;63.00;;;;;;5073454;28;20071;-70
2022/01/06 06:55:04;;;;;;;9.52;3.22;;;6.10;63.00;;;;;;5071450;28;20056;-68
2022/01/06 06:57:29;;;;;;;9.68;3.28;;;6.10;63.00;;;;;;5073490;28;20031;-70
2022/01/06 06:59:56;;;;;;;10.10;3.58;;;6.10;63.00;;;;;;5073609;28;20024;-71
2022/01/06 07:02:22;;;;;;;8.10;3.30;;;6.10;62.90;;;;;;5072376;28;20489;-70
2022/01/06 07:04:48;;;;;;;8.15;3.03;;;6.20;62.70;;;;;;5072919;28;20036;-70
2022/01/06 07:07:14;;;;;;;9.05;3.58;;;6.20;62.70;;;;;;5071543;28;20035;-69
2022/01/06 07:09:39;;;;;;;7.57;3.28;;;6.30;62.50;;;;;;5074005;28;20078;-71
2022/01/06 07:12:06;;;;;;;14.05;3.70;;;6.30;62.40;;;;;;5070473;28;20056;-68
2022/01/06 07:14:31;;;;;;;8.18;3.15;;;6.30;62.30;;;;;;5070370;28;20450;-70
2022/01/06 07:16:57;;;;;;;8.38;3.08;;;6.30;62.20;;;;;;5073242;28;20104;-70
2022/01/06 07:19:23;;;;;;;9.10;3.60;;;6.40;62.20;;;;;;5070044;28;20036;-70
2022/01/06 07:21:49;;;;;;;8.25;2.92;;;6.40;62.10;;;;;;5072780;28;20052;-72
2022/01/06 07:24:14;;;;;;;9.23;3.17;;;6.30;62.10;;;;;;5072192;28;20025;-70
2022/01/06 07:26:40;;;;;;;9.82;3.60;;;6.30;62.20;;;;;;5072485;28;20104;-71
2022/01/06 07:29:06;;;;;;;5.47;2.88;;;6.40;62.10;;;;;;5069654;28;20069;-70
2022/01/06 07:31:31;;;;;;;10.95;3.53;;;6.40;62.00;;;;;;5107006;28;20048;-70
2022/01/06 07:33:57;;;;;;;8.63;3.80;;;6.50;61.80;;;;;;5083437;28;20042;-71
2022/01/06 07:36:23;;;;;;;9.60;2.97;;;6.50;61.70;;;;;;5070795;28;20156;-71
2022/01/06 07:38:48;;;;;;;9.90;2.92;;;6.60;61.60;;;;;;5070123;28;20032;-71
2022/01/06 07:41:16;;;;;;;8.07;3.67;;;6.60;61.40;;;;;;5086820;28;20032;-71
2022/01/06 07:43:42;;;;;;;8.13;3.13;;;6.70;61.30;;;;;;5085368;28;20028;-71
2022/01/06 07:46:08;;;;;;;8.52;3.00;;;6.70;61.00;;;;;;5088443;28;20020;-70
2022/01/06 07:49:06;;;;;;;7.68;2.80;;;6.80;60.80;;;;;;5055366;28;20098;-71
2022/01/06 07:51:27;;;;;;;9.80;3.00;;;6.80;60.70;;;;;;5087798;28;20293;-70
2022/01/06 07:53:54;;;;;;;9.35;3.33;;;6.80;60.80;;;;;;5089044;28;20476;-70
2022/01/06 07:56:20;;;;;;;10.40;3.15;;;6.80;60.90;;;;;;5070831;28;20024;-70
2022/01/06 07:58:46;;;;;;;8.18;3.13;;;6.90;60.70;;;;;;5087316;28;20086;-71
2022/01/06 08:01:13;;;;;;;10.85;3.05;;;7.00;60.40;;;;;;5083811;28;20028;-70
2022/01/06 08:03:40;;;;;;;7.22;2.70;;;7.10;60.00;;;;;;5070775;28;20040;-70
2022/01/06 08:06:07;;;;;;;8.25;3.22;;;7.20;59.30;;;;;;5075706;28;20119;-69
2022/01/06 08:08:33;;;;;;;7.35;2.97;;;7.30;59.10;;;;;;5074936;28;20123;-69
2022/01/06 08:10:59;;;;;;;6.13;2.40;;;7.40;58.80;;;;;;5071793;28;20020;-70
2022/01/06 08:13:25;;;;;;;7.43;3.10;;;7.40;58.40;;;;;;5077649;28;20068;-70
2022/01/06 08:15:51;;;;;;;8.52;2.83;;;7.50;58.60;;;;;;5083469;28;20468;-70
2022/01/06 08:18:16;;;;;;;10.98;2.47;;;7.50;58.20;;;;;;5072481;28;20032;-70
2022/01/06 08:20:42;;;;;;;8.30;3.20;;;7.50;58.30;;;;;;5078170;28;20103;-70
2022/01/06 08:23:08;;;;;;;7.88;2.92;;;7.40;58.30;;;;;;5078308;28;20033;-70
2022/01/06 08:25:35;;;;;;;8.82;3.28;;;7.50;58.20;;;;;;5078713;28;20024;-71
2022/01/06 08:28:01;;;;;;;4.53;2.25;;;7.40;58.10;;;;;;5078991;28;20032;-71
2022/01/06 08:30:27;;;;;;;9.23;3.00;;;7.50;58.90;;;;;;5083584;28;20039;-64
2022/01/06 08:32:55;;;;;;;6.85;2.30;;;7.40;58.40;;;;;;5074404;28;20184;-63
2022/01/06 08:35:21;;;;;;;5.47;2.67;;;7.50;58.30;;;;;;5072607;28;20021;-66
2022/01/06 08:37:47;;;;;;;6.75;2.50;;;7.50;58.00;;;;;;5075188;28;20024;-65
2022/01/06 08:40:13;;;;;;;5.75;2.45;;;7.60;57.90;;;;;;5072026;28;20172;-65
2022/01/06 08:42:39;;;;;;;5.40;2.60;;;7.50;57.80;;;;;;5078202;28;20028;-65
2022/01/06 08:45:06;;;;;;;5.82;2.50;;;7.50;57.90;;;;;;5080060;28;20046;-66
2022/01/06 08:47:32;;;;;;;5.55;2.35;;;7.50;57.70;;;;;;5076095;28;20033;-66
2022/01/06 08:49:57;;;;;;;6.90;2.42;;;7.50;57.90;;;;;;5088666;28;20364;-66
2022/01/06 08:52:24;;;;;;;5.45;2.88;;;7.50;57.90;;;;;;5087208;28;20345;-66
2022/01/06 08:54:50;;;;;;;6.22;2.63;;;7.50;57.80;;;;;;5086794;28;20035;-65
2022/01/06 08:57:16;;;;;;;6.72;2.50;;;7.50;57.70;;;;;;5086176;28;20054;-68
2022/01/06 08:59:41;;;;;;;7.13;2.70;;;7.50;57.70;;;;;;5068074;28;20047;-67
2022/01/06 09:02:08;;;;;;;7.00;2.60;;;7.30;57.90;;;;;;5077425;28;20417;-67
2022/01/06 09:04:34;;;;;;;5.05;2.65;;;7.40;58.10;;;;;;5078641;28;20045;-66
2022/01/06 09:07:02;;;;;;;4.70;2.35;;;7.40;57.90;;;;;;5077448;28;20028;-68
2022/01/06 09:09:28;;;;;;;6.53;2.90;;;7.40;57.90;;;;;;5079349;28;20109;-68
2022/01/06 09:11:53;;;;;;;4.75;2.15;;;7.60;58.40;;;;;;5064487;28;20056;-67
2022/01/06 09:14:19;;;;;;;4.93;2.10;;;7.50;57.80;;;;;;5069540;28;20043;-67
2022/01/06 09:16:45;;;;;;;6.93;2.55;;;7.60;57.90;;;;;;5068100;28;20165;-65
2022/01/06 09:19:11;;;;;;;7.80;2.75;;;7.60;58.00;;;;;;5068575;28;20036;-68
2022/01/06 09:21:37;;;;;;;5.43;2.53;;;7.60;57.80;;;;;;5070465;28;20142;-66
2022/01/06 09:24:06;;;;;;;4.95;2.28;;;7.70;57.60;;;;;;5069841;28;20056;-72
2022/01/06 09:26:34;;;;;;;5.78;3.30;;;7.70;57.60;;;;;;5069343;28;20419;-70
2022/01/06 09:29:00;;;;;;;6.93;2.95;;;7.70;57.90;;;;;;5070958;28;20030;-72
2022/01/06 09:31:26;;;;;;;6.50;2.53;;;7.70;58.20;;;;;;5062396;28;20131;-67
2022/01/06 09:33:52;;;;;;;8.00;3.00;;;7.80;58.00;;;;;;5070536;28;20028;-65
2022/01/06 09:36:17;;;;;;;7.28;2.85;;;7.80;58.00;;;;;;5070853;28;20334;-65
2022/01/06 09:38:46;;;;;;;9.43;3.13;;;7.80;58.30;;;;;;5070970;28;20103;-64
2022/01/06 09:41:12;;;;;;;6.80;3.35;;;7.80;58.30;;;;;;5070264;28;20025;-63
2022/01/06 09:43:38;;;;;;;7.35;3.05;;;7.80;58.40;;;;;;5070877;28;20099;-64
2022/01/06 09:46:08;;;;;;;6.38;3.10;;;7.90;58.30;;;;;;5065944;28;20025;-67
2022/01/06 09:48:39;;;;;;;7.47;3.35;;;7.80;58.40;;;;;;5070476;28;20521;-67
2022/01/06 09:51:05;;;;;;;7.15;3.08;;;7.80;58.80;;;;;;5070721;28;20128;-69
2022/01/06 09:53:31;;;;;;;7.93;3.22;;;7.80;58.80;;;;;;5089060;28;20445;-66
2022/01/06 09:55:57;;;;;;;7.32;3.50;;;7.90;58.90;;;;;;5070964;28;20097;-68
2022/01/06 09:58:26;;;;;;;6.57;3.42;;;7.90;58.80;;;;;;5070488;28;20025;-69
2022/01/06 10:00:55;;;;;;;6.82;3.47;;;7.80;59.50;;;;;;5070583;28;20029;-68
2022/01/06 10:03:21;;;;;;;5.53;2.90;;;7.70;59.60;;;;;;5070269;28;20035;-68
2022/01/06 10:05:51;;;;;;;8.43;3.08;;;7.70;59.50;;;;;;5070608;28;20032;-66
2022/01/06 10:08:28;;;;;;;6.88;2.75;;;7.80;59.30;;;;;;5068415;28;20029;-69
2022/01/06 10:11:09;;;;;;;6.07;2.60;;;7.80;58.80;;;;;;5073209;28;20381;-71
2022/01/06 10:13:35;;;;;;;4.72;2.58;;;7.90;58.60;;;;;;5075721;28;20037;-66
2022/01/06 10:16:14;;;;;;;5.13;2.80;;;8.00;58.50;;;;;;5073898;28;20469;-68
2022/01/06 10:18:51;;;;;;;4.68;2.15;;;8.10;58.10;;;;;;5074505;28;20025;-67
2022/01/06 10:21:17;;;;;;;4.20;2.08;;;8.10;57.20;;;;;;5080034;28;20027;-66
2022/01/06 10:23:42;;;;;;;9.07;2.17;;;8.10;57.50;;;;;;5076936;28;20457;-66
2022/01/06 10:26:13;;;;;;;5.43;2.55;;;8.00;57.10;;;;;;5074366;28;20475;-68
2022/01/06 10:28:39;;;;;;;5.25;2.50;;;8.00;57.50;;;;;;5074020;28;20024;-67
2022/01/06 10:31:07;;;;;;;4.57;2.30;;;8.00;57.00;;;;;;5074201;28;20334;-67
2022/01/06 10:33:39;;;;;;;5.53;2.25;;;8.10;57.00;;;;;;5089309;28;20454;-68
2022/01/06 10:36:09;;;;;;;6.03;2.30;;;8.10;56.90;;;;;;5056680;28;20024;-67
2022/01/06 10:38:36;;;;;;;4.72;2.97;;;8.30;56.80;;;;;;5080516;28;20097;-68
2022/01/06 10:41:09;;;;;;;5.28;2.17;;;8.60;56.60;;;;;;5073984;28;20025;-66
2022/01/06 10:43:35;;;;;;;4.00;2.40;;;9.10;55.00;;;;;;5073109;28;20032;-68
2022/01/06 10:46:03;;;;;;;4.68;2.60;;;9.20;53.90;;;;;;5073499;28;20527;-67
2022/01/06 10:48:29;;;;;;;5.15;2.55;;;9.70;53.80;;;;;;5073279;28;20112;-68
2022/01/06 10:50:59;;;;;;;4.65;2.10;;;10.80;51.50;;;;;;5073838;28;20429;-67
2022/01/06 10:53:25;;;;;;;4.72;2.40;;;10.90;49.60;;;;;;5084890;28;20028;-67
2022/01/06 10:55:51;;;;;;;7.45;2.30;;;10.50;50.60;;;;;;5092934;28;20434;-68
2022/01/06 10:58:22;;;;;;;5.75;2.47;;;10.00;51.60;;;;;;5093193;28;20051;-67
2022/01/06 11:00:54;;;;;;;3.97;2.47;;;9.60;52.80;;;;;;5094377;28;20035;-68
2022/01/06 11:03:21;;;;;;;4.50;2.10;;;9.40;53.50;;;;;;5093668;28;20054;-67
2022/01/06 11:05:51;;;;;;;8.20;2.67;;;9.20;54.10;;;;;;5092089;28;20441;-67
2022/01/06 11:08:20;;;;;;;5.55;2.17;;;9.10;54.60;;;;;;5093657;28;20036;-65
2022/01/06 11:11:01;;;;;;;6.43;2.38;;;9.00;54.90;;;;;;5087906;28;20514;-69
2022/01/06 11:13:33;;;;;;;6.47;2.53;;;9.00;55.40;;;;;;5072546;28;20046;-69
2022/01/06 11:16:01;;;;;;;5.28;2.20;;;9.00;55.40;;;;;;5073159;28;20044;-71
2022/01/06 11:18:27;;;;;;;5.35;2.30;;;9.00;55.10;;;;;;5072924;28;20032;-71
2022/01/06 11:21:12;;;;;;;5.47;2.60;;;9.30;55.00;;;;;;5073517;28;20107;-71
2022/01/06 11:23:37;;;;;;;6.82;2.20;;;9.90;54.30;;;;;;5053443;28;20106;-71
2022/01/06 11:26:12;;;;;;;4.82;2.53;;;9.90;52.30;;;;;;5073417;28;20021;-67
2022/01/06 11:28:43;;;;;;;6.05;2.50;;;9.70;52.50;;;;;;5070645;28;20058;-70
2022/01/06 11:31:15;;;;;;;5.50;2.03;;;9.70;52.60;;;;;;5073170;28;20042;-70
2022/01/06 11:33:43;;;;;;;5.32;2.10;;;9.50;53.50;;;;;;5072162;28;20040;-70
2022/01/06 11:36:24;;;;;;;6.88;2.63;;;9.30;53.60;;;;;;5071911;28;20036;-70
2022/01/06 11:38:51;;;;;;;9.32;2.72;;;9.10;54.20;;;;;;5071471;28;20058;-70
2022/01/06 11:41:17;;;;;;;6.03;2.45;;;9.00;54.50;;;;;;5071954;28;20465;-70
2022/01/06 11:44:02;;;;;;;5.53;2.22;;;9.00;54.50;;;;;;5077560;28;20047;-69
2022/01/06 11:46:50;;;;;;;5.45;2.00;;;9.00;54.70;;;;;;5056428;28;20033;-70
2022/01/06 11:49:40;;;;;;;6.15;2.60;;;9.10;54.10;;;;;;5052724;28;20028;-70
2022/01/06 11:52:11;;;;;;;5.65;2.30;;;9.10;54.10;;;;;;5067861;28;20033;-70
2022/01/06 11:54:54;;;;;;;7.30;2.53;;;9.10;54.40;;;;;;5071938;28;20025;-70
2022/01/06 11:57:30;;;;;;;5.00;2.30;;;9.10;54.80;;;;;;5072348;28;20023;-69
2022/01/06 11:59:57;;;;;;;8.38;2.78;;;9.00;54.40;;;;;;5070837;28;20511;-69
2022/01/06 12:02:23;;;;;;;7.05;2.50;;;8.90;54.60;;;;;;5074180;28;20487;-64
2022/01/06 12:04:59;;;;;;;5.00;2.33;;;8.80;54.70;;;;;;5087787;28;20028;-70
2022/01/06 12:07:26;;;;;;;7.13;2.25;;;8.90;54.90;;;;;;5070979;28;20021;-69
2022/01/06 12:10:09;;;;;;;6.07;2.28;;;8.80;55.10;;;;;;5071959;28;20025;-69
2022/01/06 12:12:38;;;;;;;7.95;2.53;;;8.60;56.50;;;;;;5070541;28;20048;-67
2022/01/06 12:15:15;;;;;;;9.32;3.05;;;8.60;56.20;;;;;;5069992;28;20025;-68
2022/01/06 12:17:53;;;;;;;6.25;2.60;;;8.60;56.30;;;;;;5071723;28;20099;-68
2022/01/06 12:20:27;;;;;;;8.70;3.50;;;8.60;56.20;;;;;;5071391;28;20047;-70
2022/01/06 12:22:53;;;;;;;;;;;8.50;56.40;;;;;;5072305;28;20027;-68
2022/01/06 12:25:25;;;;;;;6.82;2.90;;;8.60;56.80;;;;;;5066369;28;20321;-66
2022/01/06 12:27:54;;;;;;;6.45;2.80;;;8.70;56.70;;;;;;5071182;28;20020;-66
2022/01/06 12:30:23;;;;;;;7.03;2.72;;;8.70;57.30;;;;;;5072411;28;20048;-65
2022/01/06 12:33:21;;;;;;;8.32;2.95;;;8.70;57.70;;;;;;5088475;28;20036;-65
2022/01/06 12:35:50;;;;;;;6.57;3.13;;;8.80;57.80;;;;;;5090995;28;20052;-65
2022/01/06 12:38:25;;;;;;;8.55;3.00;;;8.70;57.60;;;;;;5092579;28;20018;-65
2022/01/06 12:40:51;;;;;;;12.23;2.95;;;8.90;57.70;;;;;;5092180;28;20122;-65
2022/01/06 12:43:22;;;;;;;8.02;3.05;;;8.90;57.50;;;;;;5090821;28;20023;-66
2022/01/06 12:46:04;;;;;;;7.43;3.05;;;8.80;57.20;;;;;;5090474;28;20016;-65
2022/01/06 12:48:41;;;;;;;9.60;2.60;;;8.80;56.70;;;;;;5089959;28;20085;-65
2022/01/06 12:51:11;;;;;;;5.78;2.13;;;8.80;56.70;;;;;;5092397;28;20028;-65
2022/01/06 12:53:42;;;;;;;5.47;1.85;;;8.80;55.80;;;;;;5090109;28;20024;-65
2022/01/06 12:56:20;;;;;;;4.45;1.92;;;8.80;55.20;;;;;;5092102;28;20054;-65
2022/01/06 12:58:46;;;;;;;3.80;1.50;;;8.90;54.40;;;;;;5091328;28;20016;-64
2022/01/06 13:01:12;;;;;;;14.10;6.75;;;8.90;53.60;;;;;;5090851;28;20034;-64
2022/01/06 13:03:40;;;;;;;3.35;1.75;;;9.00;53.80;;;;;;5090250;28;20510;-64
2022/01/06 13:06:12;;;;;;;5.63;2.53;;;9.00;52.70;;;;;;5092037;28;20085;-66